sensor_id;sensor_type;location;lat;lon;timestamp;P1;durP1;ratioP1;P2;durP2;ratioP2
56331;SDS011;42237;53.340;6.812;2022-10-31T00:00:58;44.58;;;20.65;;
56331;SDS011;42237;53.340;6.812;2022-10-31T00:03:24;49.00;;;21.83;;
56331;SDS011;42237;53.340;6.812;2022-10-31T00:05:51;39.33;;;18.60;;
56331;SDS011;42237;53.340;6.812;2022-10-31T00:08:17;47.15;;;20.98;;
56331;SDS011;42237;53.340;6.812;2022-10-31T00:10:43;44.53;;;18.75;;
56331;SDS011;42237;53.340;6.812;2022-10-31T00:13:10;42.83;;;19.90;;
56331;SDS011;42237;53.340;6.812;2022-10-31T00:15:37;51.25;;;21.08;;
56331;SDS011;42237;53.340;6.812;2022-10-31T00:18:03;46.70;;;21.00;;
56331;SDS011;42237;53.340;6.812;2022-10-31T00:20:30;45.40;;;20.17;;
56331;SDS011;42237;53.340;6.812;2022-10-31T00:23:00;39.42;;;20.08;;
56331;SDS011;42237;53.340;6.812;2022-10-31T00:25:27;37.13;;;19.10;;
56331;SDS011;42237;53.340;6.812;2022-10-31T00:27:54;44.90;;;19.80;;
56331;SDS011;42237;53.340;6.812;2022-10-31T00:30:19;46.20;;;22.33;;
56331;SDS011;42237;53.340;6.812;2022-10-31T00:32:45;47.33;;;20.63;;
56331;SDS011;42237;53.340;6.812;2022-10-31T00:35:11;45.92;;;21.48;;
56331;SDS011;42237;53.340;6.812;2022-10-31T00:37:36;43.72;;;20.35;;
56331;SDS011;42237;53.340;6.812;2022-10-31T00:40:02;40.78;;;19.27;;
56331;SDS011;42237;53.340;6.812;2022-10-31T00:42:28;42.67;;;20.55;;
56331;SDS011;42237;53.340;6.812;2022-10-31T00:44:54;43.28;;;20.90;;
56331;SDS011;42237;53.340;6.812;2022-10-31T00:47:19;47.22;;;20.35;;
56331;SDS011;42237;53.340;6.812;2022-10-31T00:49:45;45.45;;;21.27;;
56331;SDS011;42237;53.340;6.812;2022-10-31T00:52:11;52.78;;;22.65;;
56331;SDS011;42237;53.340;6.812;2022-10-31T00:54:36;47.58;;;21.08;;
56331;SDS011;42237;53.340;6.812;2022-10-31T00:57:02;50.42;;;20.25;;
56331;SDS011;42237;53.340;6.812;2022-10-31T00:59:28;36.97;;;18.83;;
56331;SDS011;42237;53.340;6.812;2022-10-31T01:01:53;46.75;;;21.15;;
56331;SDS011;42237;53.340;6.812;2022-10-31T01:04:19;46.72;;;22.60;;
56331;SDS011;42237;53.340;6.812;2022-10-31T01:06:45;47.45;;;21.90;;
56331;SDS011;42237;53.340;6.812;2022-10-31T01:09:11;53.53;;;22.70;;
56331;SDS011;42237;53.340;6.812;2022-10-31T01:11:36;49.28;;;23.65;;
56331;SDS011;42237;53.340;6.812;2022-10-31T01:14:02;50.45;;;23.48;;
56331;SDS011;42237;53.340;6.812;2022-10-31T01:16:28;51.30;;;24.15;;
56331;SDS011;42237;53.340;6.812;2022-10-31T01:18:56;48.15;;;23.85;;
56331;SDS011;42237;53.340;6.812;2022-10-31T01:21:23;48.95;;;24.13;;
56331;SDS011;42237;53.340;6.812;2022-10-31T01:23:52;52.05;;;23.63;;
56331;SDS011;42237;53.340;6.812;2022-10-31T01:26:23;57.67;;;24.15;;
56331;SDS011;42237;53.340;6.812;2022-10-31T01:28:55;43.70;;;23.42;;
56331;SDS011;42237;53.340;6.812;2022-10-31T01:31:26;46.63;;;23.70;;
56331;SDS011;42237;53.340;6.812;2022-10-31T01:33:53;57.20;;;25.25;;
56331;SDS011;42237;53.340;6.812;2022-10-31T01:36:22;58.83;;;25.15;;
56331;SDS011;42237;53.340;6.812;2022-10-31T01:38:48;51.80;;;23.75;;
56331;SDS011;42237;53.340;6.812;2022-10-31T01:41:19;53.65;;;24.42;;
56331;SDS011;42237;53.340;6.812;2022-10-31T01:46:33;58.28;;;25.25;;
56331;SDS011;42237;53.340;6.812;2022-10-31T01:49:03;59.85;;;25.05;;
56331;SDS011;42237;53.340;6.812;2022-10-31T01:51:36;52.63;;;23.67;;
56331;SDS011;42237;53.340;6.812;2022-10-31T01:54:07;54.40;;;24.05;;
56331;SDS011;42237;53.340;6.812;2022-10-31T01:56:37;60.67;;;25.88;;
56331;SDS011;42237;53.340;6.812;2022-10-31T01:59:08;55.45;;;25.58;;
56331;SDS011;42237;53.340;6.812;2022-10-31T02:01:36;58.70;;;26.05;;
56331;SDS011;42237;53.340;6.812;2022-10-31T02:04:03;49.03;;;23.13;;
56331;SDS011;42237;53.340;6.812;2022-10-31T02:06:37;47.63;;;23.88;;
56331;SDS011;42237;53.340;6.812;2022-10-31T02:09:08;53.75;;;23.77;;
56331;SDS011;42237;53.340;6.812;2022-10-31T02:11:35;53.22;;;23.17;;
56331;SDS011;42237;53.340;6.812;2022-10-31T02:14:02;48.25;;;22.65;;
56331;SDS011;42237;53.340;6.812;2022-10-31T02:16:28;50.38;;;23.52;;
56331;SDS011;42237;53.340;6.812;2022-10-31T02:18:54;41.50;;;22.40;;
56331;SDS011;42237;53.340;6.812;2022-10-31T02:21:37;59.20;;;23.90;;
56331;SDS011;42237;53.340;6.812;2022-10-31T02:24:35;47.67;;;23.33;;
56331;SDS011;42237;53.340;6.812;2022-10-31T02:37:22;46.40;;;22.10;;
56331;SDS011;42237;53.340;6.812;2022-10-31T02:39:58;49.15;;;23.52;;
56331;SDS011;42237;53.340;6.812;2022-10-31T02:45:29;66.30;;;24.80;;
56331;SDS011;42237;53.340;6.812;2022-10-31T02:48:02;46.08;;;23.13;;
56331;SDS011;42237;53.340;6.812;2022-10-31T02:50:35;55.60;;;24.27;;
56331;SDS011;42237;53.340;6.812;2022-10-31T02:53:05;45.90;;;22.98;;
56331;SDS011;42237;53.340;6.812;2022-10-31T02:58:01;46.10;;;22.17;;
56331;SDS011;42237;53.340;6.812;2022-10-31T03:00:52;48.60;;;22.08;;
56331;SDS011;42237;53.340;6.812;2022-10-31T03:06:41;41.97;;;20.55;;
56331;SDS011;42237;53.340;6.812;2022-10-31T03:09:25;42.85;;;20.70;;
56331;SDS011;42237;53.340;6.812;2022-10-31T03:15:36;45.95;;;21.33;;
56331;SDS011;42237;53.340;6.812;2022-10-31T03:17:42;41.08;;;21.13;;
56331;SDS011;42237;53.340;6.812;2022-10-31T03:20:11;46.42;;;21.48;;
56331;SDS011;42237;53.340;6.812;2022-10-31T03:22:37;47.17;;;21.02;;
56331;SDS011;42237;53.340;6.812;2022-10-31T03:25:07;41.38;;;20.50;;
56331;SDS011;42237;53.340;6.812;2022-10-31T03:27:34;48.28;;;21.83;;
56331;SDS011;42237;53.340;6.812;2022-10-31T03:30:03;54.95;;;22.20;;
56331;SDS011;42237;53.340;6.812;2022-10-31T03:35:10;37.53;;;18.88;;
56331;SDS011;42237;53.340;6.812;2022-10-31T03:37:40;46.35;;;22.55;;
56331;SDS011;42237;53.340;6.812;2022-10-31T03:40:07;43.80;;;20.83;;
56331;SDS011;42237;53.340;6.812;2022-10-31T03:42:34;41.92;;;20.60;;
56331;SDS011;42237;53.340;6.812;2022-10-31T03:47:35;41.33;;;20.77;;
56331;SDS011;42237;53.340;6.812;2022-10-31T03:50:03;38.13;;;19.92;;
56331;SDS011;42237;53.340;6.812;2022-10-31T03:52:46;42.65;;;20.90;;
56331;SDS011;42237;53.340;6.812;2022-10-31T03:58:32;40.63;;;20.30;;
56331;SDS011;42237;53.340;6.812;2022-10-31T04:01:04;42.83;;;20.15;;
56331;SDS011;42237;53.340;6.812;2022-10-31T04:03:34;46.17;;;21.17;;
56331;SDS011;42237;53.340;6.812;2022-10-31T04:06:04;41.92;;;20.13;;
56331;SDS011;42237;53.340;6.812;2022-10-31T04:08:33;41.08;;;20.00;;
56331;SDS011;42237;53.340;6.812;2022-10-31T04:11:09;46.58;;;20.45;;
56331;SDS011;42237;53.340;6.812;2022-10-31T04:13:37;46.58;;;20.20;;
56331;SDS011;42237;53.340;6.812;2022-10-31T04:16:05;45.88;;;21.55;;
56331;SDS011;42237;53.340;6.812;2022-10-31T04:18:32;42.88;;;20.73;;
56331;SDS011;42237;53.340;6.812;2022-10-31T04:21:05;51.60;;;23.52;;
56331;SDS011;42237;53.340;6.812;2022-10-31T04:23:33;50.85;;;22.42;;
56331;SDS011;42237;53.340;6.812;2022-10-31T04:26:00;41.97;;;20.90;;
56331;SDS011;42237;53.340;6.812;2022-10-31T04:28:26;40.75;;;20.45;;
56331;SDS011;42237;53.340;6.812;2022-10-31T04:30:52;48.85;;;21.27;;
56331;SDS011;42237;53.340;6.812;2022-10-31T04:33:18;49.97;;;22.00;;
56331;SDS011;42237;53.340;6.812;2022-10-31T04:35:44;46.63;;;20.35;;
56331;SDS011;42237;53.340;6.812;2022-10-31T04:38:10;67.28;;;21.05;;
56331;SDS011;42237;53.340;6.812;2022-10-31T04:40:36;47.33;;;22.33;;
56331;SDS011;42237;53.340;6.812;2022-10-31T04:43:01;40.60;;;20.95;;
56331;SDS011;42237;53.340;6.812;2022-10-31T04:45:27;48.67;;;21.63;;
56331;SDS011;42237;53.340;6.812;2022-10-31T04:47:53;52.88;;;23.42;;
56331;SDS011;42237;53.340;6.812;2022-10-31T04:50:18;49.55;;;22.38;;
56331;SDS011;42237;53.340;6.812;2022-10-31T04:52:44;42.47;;;20.27;;
56331;SDS011;42237;53.340;6.812;2022-10-31T04:55:11;56.40;;;23.02;;
56331;SDS011;42237;53.340;6.812;2022-10-31T04:57:41;41.03;;;20.65;;
56331;SDS011;42237;53.340;6.812;2022-10-31T05:00:07;43.50;;;20.45;;
56331;SDS011;42237;53.340;6.812;2022-10-31T05:02:33;49.38;;;22.70;;
56331;SDS011;42237;53.340;6.812;2022-10-31T05:04:59;53.85;;;24.20;;
56331;SDS011;42237;53.340;6.812;2022-10-31T05:07:25;51.58;;;22.95;;
56331;SDS011;42237;53.340;6.812;2022-10-31T05:09:50;42.97;;;20.92;;
56331;SDS011;42237;53.340;6.812;2022-10-31T05:12:16;43.75;;;21.38;;
56331;SDS011;42237;53.340;6.812;2022-10-31T05:14:42;41.72;;;21.05;;
56331;SDS011;42237;53.340;6.812;2022-10-31T05:17:07;41.05;;;21.27;;
56331;SDS011;42237;53.340;6.812;2022-10-31T05:19:33;51.60;;;22.70;;
56331;SDS011;42237;53.340;6.812;2022-10-31T05:21:59;41.17;;;20.73;;
56331;SDS011;42237;53.340;6.812;2022-10-31T05:24:24;48.05;;;22.50;;
56331;SDS011;42237;53.340;6.812;2022-10-31T05:26:50;39.25;;;20.42;;
56331;SDS011;42237;53.340;6.812;2022-10-31T05:29:15;43.05;;;21.23;;
56331;SDS011;42237;53.340;6.812;2022-10-31T05:31:41;181.90;;;92.15;;
56331;SDS011;42237;53.340;6.812;2022-10-31T05:34:07;100.03;;;64.13;;
56331;SDS011;42237;53.340;6.812;2022-10-31T05:36:33;44.40;;;24.17;;
56331;SDS011;42237;53.340;6.812;2022-10-31T05:38:58;44.15;;;22.48;;
56331;SDS011;42237;53.340;6.812;2022-10-31T05:41:24;43.88;;;22.27;;
56331;SDS011;42237;53.340;6.812;2022-10-31T05:43:55;47.53;;;20.38;;
56331;SDS011;42237;53.340;6.812;2022-10-31T05:46:21;37.72;;;18.98;;
56331;SDS011;42237;53.340;6.812;2022-10-31T05:48:47;37.38;;;20.00;;
56331;SDS011;42237;53.340;6.812;2022-10-31T05:51:12;48.38;;;23.08;;
56331;SDS011;42237;53.340;6.812;2022-10-31T05:53:38;45.75;;;20.67;;
56331;SDS011;42237;53.340;6.812;2022-10-31T05:56:04;48.45;;;21.85;;
56331;SDS011;42237;53.340;6.812;2022-10-31T05:58:29;45.80;;;21.45;;
56331;SDS011;42237;53.340;6.812;2022-10-31T06:00:55;46.65;;;21.80;;
56331;SDS011;42237;53.340;6.812;2022-10-31T06:03:21;43.05;;;21.08;;
56331;SDS011;42237;53.340;6.812;2022-10-31T06:05:46;46.13;;;21.73;;
56331;SDS011;42237;53.340;6.812;2022-10-31T06:08:12;44.25;;;21.92;;
56331;SDS011;42237;53.340;6.812;2022-10-31T06:10:38;45.75;;;22.23;;
56331;SDS011;42237;53.340;6.812;2022-10-31T06:13:03;37.38;;;19.80;;
56331;SDS011;42237;53.340;6.812;2022-10-31T06:15:31;42.53;;;21.98;;
56331;SDS011;42237;53.340;6.812;2022-10-31T06:18:06;37.40;;;21.08;;
56331;SDS011;42237;53.340;6.812;2022-10-31T06:20:32;43.05;;;21.20;;
56331;SDS011;42237;53.340;6.812;2022-10-31T06:22:58;41.30;;;20.08;;
56331;SDS011;42237;53.340;6.812;2022-10-31T06:25:24;50.45;;;24.83;;
56331;SDS011;42237;53.340;6.812;2022-10-31T06:27:50;49.22;;;23.25;;
56331;SDS011;42237;53.340;6.812;2022-10-31T06:30:15;38.00;;;20.35;;
56331;SDS011;42237;53.340;6.812;2022-10-31T06:32:41;42.38;;;21.48;;
56331;SDS011;42237;53.340;6.812;2022-10-31T06:35:07;45.65;;;21.83;;
56331;SDS011;42237;53.340;6.812;2022-10-31T06:37:33;46.17;;;22.23;;
56331;SDS011;42237;53.340;6.812;2022-10-31T06:39:58;44.67;;;21.75;;
56331;SDS011;42237;53.340;6.812;2022-10-31T06:42:24;47.90;;;23.00;;
56331;SDS011;42237;53.340;6.812;2022-10-31T06:44:50;44.35;;;22.80;;
56331;SDS011;42237;53.340;6.812;2022-10-31T06:47:15;45.80;;;21.88;;
56331;SDS011;42237;53.340;6.812;2022-10-31T06:49:41;43.28;;;21.83;;
56331;SDS011;42237;53.340;6.812;2022-10-31T06:52:07;37.83;;;21.05;;
56331;SDS011;42237;53.340;6.812;2022-10-31T06:54:32;36.10;;;20.08;;
56331;SDS011;42237;53.340;6.812;2022-10-31T06:56:58;42.35;;;21.98;;
56331;SDS011;42237;53.340;6.812;2022-10-31T06:59:24;41.80;;;22.33;;
56331;SDS011;42237;53.340;6.812;2022-10-31T07:01:49;42.53;;;21.75;;
56331;SDS011;42237;53.340;6.812;2022-10-31T07:04:15;39.22;;;20.35;;
56331;SDS011;42237;53.340;6.812;2022-10-31T07:06:41;45.55;;;26.38;;
56331;SDS011;42237;53.340;6.812;2022-10-31T07:09:06;54.95;;;29.67;;
56331;SDS011;42237;53.340;6.812;2022-10-31T07:11:32;44.45;;;25.35;;
56331;SDS011;42237;53.340;6.812;2022-10-31T07:13:58;40.13;;;22.17;;
56331;SDS011;42237;53.340;6.812;2022-10-31T07:16:24;44.72;;;23.38;;
56331;SDS011;42237;53.340;6.812;2022-10-31T07:18:49;35.88;;;22.30;;
56331;SDS011;42237;53.340;6.812;2022-10-31T07:21:15;43.75;;;23.33;;
56331;SDS011;42237;53.340;6.812;2022-10-31T07:23:41;33.80;;;20.17;;
56331;SDS011;42237;53.340;6.812;2022-10-31T07:26:07;41.53;;;22.23;;
56331;SDS011;42237;53.340;6.812;2022-10-31T07:28:34;45.95;;;22.95;;
56331;SDS011;42237;53.340;6.812;2022-10-31T07:31:00;36.17;;;21.60;;
56331;SDS011;42237;53.340;6.812;2022-10-31T07:33:25;35.90;;;20.00;;
56331;SDS011;42237;53.340;6.812;2022-10-31T07:35:52;41.28;;;20.73;;
56331;SDS011;42237;53.340;6.812;2022-10-31T07:38:18;31.77;;;19.42;;
56331;SDS011;42237;53.340;6.812;2022-10-31T07:40:43;36.78;;;20.65;;
56331;SDS011;42237;53.340;6.812;2022-10-31T07:43:14;45.05;;;22.98;;
56331;SDS011;42237;53.340;6.812;2022-10-31T07:45:41;43.97;;;23.60;;
56331;SDS011;42237;53.340;6.812;2022-10-31T07:48:07;45.55;;;24.92;;
56331;SDS011;42237;53.340;6.812;2022-10-31T07:50:32;44.10;;;23.67;;
56331;SDS011;42237;53.340;6.812;2022-10-31T07:53:02;38.63;;;22.45;;
56331;SDS011;42237;53.340;6.812;2022-10-31T07:55:31;46.70;;;23.27;;
56331;SDS011;42237;53.340;6.812;2022-10-31T08:00:24;46.33;;;24.20;;
56331;SDS011;42237;53.340;6.812;2022-10-31T08:03:03;53.88;;;24.70;;
56331;SDS011;42237;53.340;6.812;2022-10-31T08:05:31;41.67;;;23.08;;
56331;SDS011;42237;53.340;6.812;2022-10-31T08:07:58;43.22;;;24.45;;
56331;SDS011;42237;53.340;6.812;2022-10-31T08:10:24;46.08;;;24.80;;
56331;SDS011;42237;53.340;6.812;2022-10-31T08:13:00;46.72;;;25.15;;
56331;SDS011;42237;53.340;6.812;2022-10-31T08:15:36;44.83;;;24.52;;
56331;SDS011;42237;53.340;6.812;2022-10-31T08:18:05;52.13;;;27.10;;
56331;SDS011;42237;53.340;6.812;2022-10-31T08:20:31;44.33;;;24.75;;
56331;SDS011;42237;53.340;6.812;2022-10-31T08:22:58;40.83;;;23.27;;
56331;SDS011;42237;53.340;6.812;2022-10-31T08:25:29;48.60;;;25.10;;
56331;SDS011;42237;53.340;6.812;2022-10-31T08:27:55;48.65;;;26.00;;
56331;SDS011;42237;53.340;6.812;2022-10-31T08:30:23;49.00;;;25.63;;
56331;SDS011;42237;53.340;6.812;2022-10-31T08:33:01;44.15;;;25.05;;
56331;SDS011;42237;53.340;6.812;2022-10-31T08:35:29;52.30;;;27.73;;
56331;SDS011;42237;53.340;6.812;2022-10-31T08:37:56;50.92;;;26.58;;
56331;SDS011;42237;53.340;6.812;2022-10-31T08:40:22;56.17;;;26.92;;
56331;SDS011;42237;53.340;6.812;2022-10-31T08:43:02;48.78;;;27.50;;
56331;SDS011;42237;53.340;6.812;2022-10-31T08:45:28;57.03;;;28.52;;
56331;SDS011;42237;53.340;6.812;2022-10-31T08:47:59;56.72;;;29.40;;
56331;SDS011;42237;53.340;6.812;2022-10-31T08:50:26;53.33;;;28.40;;
56331;SDS011;42237;53.340;6.812;2022-10-31T08:52:53;53.38;;;28.27;;
56331;SDS011;42237;53.340;6.812;2022-10-31T08:55:18;49.00;;;28.25;;
56331;SDS011;42237;53.340;6.812;2022-10-31T08:57:44;58.95;;;29.25;;
56331;SDS011;42237;53.340;6.812;2022-10-31T09:00:10;46.78;;;27.50;;
56331;SDS011;42237;53.340;6.812;2022-10-31T09:02:36;47.50;;;26.25;;
56331;SDS011;42237;53.340;6.812;2022-10-31T09:05:03;46.97;;;27.02;;
56331;SDS011;42237;53.340;6.812;2022-10-31T09:07:29;46.85;;;27.25;;
56331;SDS011;42237;53.340;6.812;2022-10-31T09:09:55;49.13;;;27.70;;
56331;SDS011;42237;53.340;6.812;2022-10-31T09:12:21;52.63;;;27.95;;
56331;SDS011;42237;53.340;6.812;2022-10-31T09:14:48;44.85;;;25.17;;
56331;SDS011;42237;53.340;6.812;2022-10-31T09:17:14;46.72;;;26.17;;
56331;SDS011;42237;53.340;6.812;2022-10-31T09:19:40;42.20;;;24.63;;
56331;SDS011;42237;53.340;6.812;2022-10-31T09:22:05;47.58;;;24.38;;
56331;SDS011;42237;53.340;6.812;2022-10-31T09:24:31;40.22;;;24.13;;
56331;SDS011;42237;53.340;6.812;2022-10-31T09:26:58;49.28;;;26.02;;
56331;SDS011;42237;53.340;6.812;2022-10-31T09:29:23;51.47;;;25.45;;
56331;SDS011;42237;53.340;6.812;2022-10-31T09:31:49;46.75;;;26.73;;
56331;SDS011;42237;53.340;6.812;2022-10-31T09:34:15;54.28;;;28.35;;
56331;SDS011;42237;53.340;6.812;2022-10-31T09:36:40;45.33;;;27.92;;
56331;SDS011;42237;53.340;6.812;2022-10-31T09:39:08;49.28;;;28.17;;
56331;SDS011;42237;53.340;6.812;2022-10-31T09:46:49;45.83;;;28.92;;
56331;SDS011;42237;53.340;6.812;2022-10-31T09:52:14;58.58;;;32.83;;
56331;SDS011;42237;53.340;6.812;2022-10-31T09:54:50;58.78;;;34.50;;
56331;SDS011;42237;53.340;6.812;2022-10-31T09:57:24;66.60;;;34.08;;
56331;SDS011;42237;53.340;6.812;2022-10-31T09:59:53;63.08;;;36.78;;
56331;SDS011;42237;53.340;6.812;2022-10-31T10:13:34;50.97;;;28.33;;
56331;SDS011;42237;53.340;6.812;2022-10-31T10:16:22;55.35;;;29.25;;
56331;SDS011;42237;53.340;6.812;2022-10-31T10:24:33;51.95;;;30.35;;
56331;SDS011;42237;53.340;6.812;2022-10-31T10:27:29;56.80;;;31.23;;
56331;SDS011;42237;53.340;6.812;2022-10-31T10:32:43;58.58;;;31.48;;
56331;SDS011;42237;53.340;6.812;2022-10-31T10:35:21;47.65;;;25.55;;
56331;SDS011;42237;53.340;6.812;2022-10-31T10:38:00;54.28;;;25.00;;
56331;SDS011;42237;53.340;6.812;2022-10-31T10:40:34;36.20;;;22.33;;
56331;SDS011;42237;53.340;6.812;2022-10-31T10:45:53;37.63;;;22.02;;
56331;SDS011;42237;53.340;6.812;2022-10-31T10:51:52;33.53;;;19.25;;
56331;SDS011;42237;53.340;6.812;2022-10-31T10:59:46;32.75;;;16.73;;
56331;SDS011;42237;53.340;6.812;2022-10-31T11:02:22;31.45;;;17.23;;
56331;SDS011;42237;53.340;6.812;2022-10-31T11:04:50;30.73;;;17.23;;
56331;SDS011;42237;53.340;6.812;2022-10-31T11:07:19;36.53;;;18.08;;
56331;SDS011;42237;53.340;6.812;2022-10-31T11:09:45;26.38;;;15.77;;
56331;SDS011;42237;53.340;6.812;2022-10-31T11:12:26;32.88;;;18.08;;
56331;SDS011;42237;53.340;6.812;2022-10-31T11:15:02;28.45;;;16.35;;
56331;SDS011;42237;53.340;6.812;2022-10-31T11:17:34;29.13;;;16.17;;
56331;SDS011;42237;53.340;6.812;2022-10-31T11:22:29;31.95;;;18.27;;
56331;SDS011;42237;53.340;6.812;2022-10-31T11:24:55;38.20;;;19.02;;
56331;SDS011;42237;53.340;6.812;2022-10-31T11:27:22;37.58;;;19.77;;
56331;SDS011;42237;53.340;6.812;2022-10-31T11:29:49;35.65;;;20.20;;
56331;SDS011;42237;53.340;6.812;2022-10-31T11:32:22;35.40;;;19.00;;
56331;SDS011;42237;53.340;6.812;2022-10-31T11:34:51;37.00;;;17.88;;
56331;SDS011;42237;53.340;6.812;2022-10-31T11:37:26;36.90;;;20.33;;
56331;SDS011;42237;53.340;6.812;2022-10-31T11:40:01;35.47;;;19.60;;
56331;SDS011;42237;53.340;6.812;2022-10-31T11:42:35;35.00;;;20.33;;
56331;SDS011;42237;53.340;6.812;2022-10-31T11:45:45;36.05;;;19.20;;
56331;SDS011;42237;53.340;6.812;2022-10-31T11:47:52;33.53;;;18.27;;
56331;SDS011;42237;53.340;6.812;2022-10-31T11:50:22;31.08;;;18.23;;
56331;SDS011;42237;53.340;6.812;2022-10-31T11:52:51;34.60;;;17.50;;
56331;SDS011;42237;53.340;6.812;2022-10-31T11:57:57;32.80;;;16.98;;
56331;SDS011;42237;53.340;6.812;2022-10-31T12:00:24;29.45;;;13.85;;
56331;SDS011;42237;53.340;6.812;2022-10-31T12:03:04;32.88;;;15.25;;
56331;SDS011;42237;53.340;6.812;2022-10-31T12:05:55;24.58;;;12.73;;
56331;SDS011;42237;53.340;6.812;2022-10-31T12:08:38;22.10;;;11.23;;
56331;SDS011;42237;53.340;6.812;2022-10-31T12:13:33;24.13;;;11.45;;
56331;SDS011;42237;53.340;6.812;2022-10-31T12:16:11;19.33;;;10.75;;
56331;SDS011;42237;53.340;6.812;2022-10-31T12:18:51;21.23;;;10.65;;
56331;SDS011;42237;53.340;6.812;2022-10-31T12:21:31;23.20;;;11.00;;
56331;SDS011;42237;53.340;6.812;2022-10-31T12:26:55;19.60;;;9.48;;
56331;SDS011;42237;53.340;6.812;2022-10-31T12:32:28;19.83;;;10.10;;
56331;SDS011;42237;53.340;6.812;2022-10-31T12:43:21;24.70;;;12.68;;
56331;SDS011;42237;53.340;6.812;2022-10-31T12:45:59;22.67;;;13.68;;
56331;SDS011;42237;53.340;6.812;2022-10-31T13:00:13;23.38;;;10.25;;
56331;SDS011;42237;53.340;6.812;2022-10-31T13:08:08;21.10;;;9.00;;
56331;SDS011;42237;53.340;6.812;2022-10-31T13:10:43;15.77;;;8.50;;
56331;SDS011;42237;53.340;6.812;2022-10-31T13:13:38;15.35;;;8.20;;
56331;SDS011;42237;53.340;6.812;2022-10-31T13:16:43;14.73;;;7.70;;
56331;SDS011;42237;53.340;6.812;2022-10-31T13:19:23;14.52;;;6.88;;
56331;SDS011;42237;53.340;6.812;2022-10-31T13:25:26;13.98;;;8.20;;
56331;SDS011;42237;53.340;6.812;2022-10-31T13:27:59;20.42;;;8.80;;
56331;SDS011;42237;53.340;6.812;2022-10-31T13:30:32;13.98;;;8.35;;
56331;SDS011;42237;53.340;6.812;2022-10-31T13:33:19;15.18;;;7.22;;
56331;SDS011;42237;53.340;6.812;2022-10-31T13:36:06;15.15;;;7.28;;
56331;SDS011;42237;53.340;6.812;2022-10-31T13:41:19;17.75;;;8.45;;
56331;SDS011;42237;53.340;6.812;2022-10-31T13:44:13;16.75;;;8.90;;
56331;SDS011;42237;53.340;6.812;2022-10-31T13:46:48;17.02;;;9.45;;
56331;SDS011;42237;53.340;6.812;2022-10-31T13:54:43;21.58;;;10.95;;
56331;SDS011;42237;53.340;6.812;2022-10-31T13:59:46;20.50;;;10.52;;
56331;SDS011;42237;53.340;6.812;2022-10-31T14:02:16;19.73;;;10.15;;
56331;SDS011;42237;53.340;6.812;2022-10-31T14:04:51;17.63;;;9.80;;
56331;SDS011;42237;53.340;6.812;2022-10-31T14:07:21;19.42;;;9.93;;
56331;SDS011;42237;53.340;6.812;2022-10-31T14:12:45;15.18;;;8.35;;
56331;SDS011;42237;53.340;6.812;2022-10-31T14:17:59;15.25;;;8.23;;
56331;SDS011;42237;53.340;6.812;2022-10-31T14:20:38;18.30;;;8.88;;
56331;SDS011;42237;53.340;6.812;2022-10-31T14:34:53;17.35;;;9.05;;
56331;SDS011;42237;53.340;6.812;2022-10-31T14:47:59;20.98;;;8.18;;
56331;SDS011;42237;53.340;6.812;2022-10-31T14:50:49;17.10;;;7.88;;
56331;SDS011;42237;53.340;6.812;2022-10-31T14:53:30;20.58;;;8.25;;
56331;SDS011;42237;53.340;6.812;2022-10-31T14:55:59;16.52;;;7.50;;
56331;SDS011;42237;53.340;6.812;2022-10-31T15:01:05;14.95;;;8.32;;
56331;SDS011;42237;53.340;6.812;2022-10-31T15:03:36;19.42;;;8.55;;
56331;SDS011;42237;53.340;6.812;2022-10-31T15:06:11;15.68;;;8.25;;
56331;SDS011;42237;53.340;6.812;2022-10-31T15:08:46;14.07;;;8.10;;
56331;SDS011;42237;53.340;6.812;2022-10-31T15:11:21;19.42;;;8.70;;
56331;SDS011;42237;53.340;6.812;2022-10-31T15:13:52;18.35;;;8.30;;
56331;SDS011;42237;53.340;6.812;2022-10-31T15:16:20;17.05;;;9.15;;
56331;SDS011;42237;53.340;6.812;2022-10-31T15:18:55;17.60;;;8.77;;
56331;SDS011;42237;53.340;6.812;2022-10-31T15:21:23;20.10;;;11.20;;
56331;SDS011;42237;53.340;6.812;2022-10-31T15:23:51;20.50;;;10.85;;
56331;SDS011;42237;53.340;6.812;2022-10-31T15:26:19;21.20;;;11.60;;
56331;SDS011;42237;53.340;6.812;2022-10-31T15:29:01;20.17;;;12.52;;
56331;SDS011;42237;53.340;6.812;2022-10-31T15:31:28;24.83;;;13.00;;
56331;SDS011;42237;53.340;6.812;2022-10-31T15:33:57;27.08;;;14.13;;
56331;SDS011;42237;53.340;6.812;2022-10-31T15:36:30;24.40;;;14.63;;
56331;SDS011;42237;53.340;6.812;2022-10-31T15:38:57;26.83;;;14.77;;
56331;SDS011;42237;53.340;6.812;2022-10-31T15:43:49;23.27;;;14.60;;
56331;SDS011;42237;53.340;6.812;2022-10-31T15:46:18;29.23;;;15.13;;
56331;SDS011;42237;53.340;6.812;2022-10-31T15:48:44;27.75;;;15.40;;
56331;SDS011;42237;53.340;6.812;2022-10-31T15:51:11;25.98;;;14.48;;
56331;SDS011;42237;53.340;6.812;2022-10-31T15:53:48;27.42;;;15.52;;
56331;SDS011;42237;53.340;6.812;2022-10-31T15:56:20;25.58;;;14.73;;
56331;SDS011;42237;53.340;6.812;2022-10-31T15:58:50;28.40;;;14.00;;
56331;SDS011;42237;53.340;6.812;2022-10-31T16:01:21;26.45;;;14.23;;
56331;SDS011;42237;53.340;6.812;2022-10-31T16:06:37;25.30;;;13.25;;
56331;SDS011;42237;53.340;6.812;2022-10-31T16:09:03;23.80;;;13.35;;
56331;SDS011;42237;53.340;6.812;2022-10-31T16:11:48;23.98;;;12.75;;
56331;SDS011;42237;53.340;6.812;2022-10-31T16:14:18;21.83;;;12.60;;
56331;SDS011;42237;53.340;6.812;2022-10-31T16:16:49;19.23;;;11.98;;
56331;SDS011;42237;53.340;6.812;2022-10-31T16:21:50;24.67;;;12.57;;
56331;SDS011;42237;53.340;6.812;2022-10-31T16:25:12;18.75;;;11.63;;
56331;SDS011;42237;53.340;6.812;2022-10-31T16:27:37;22.75;;;11.57;;
56331;SDS011;42237;53.340;6.812;2022-10-31T16:33:00;16.73;;;10.45;;
56331;SDS011;42237;53.340;6.812;2022-10-31T16:35:38;16.75;;;10.10;;
56331;SDS011;42237;53.340;6.812;2022-10-31T16:38:04;19.08;;;11.30;;
56331;SDS011;42237;53.340;6.812;2022-10-31T16:40:30;16.15;;;10.02;;
56331;SDS011;42237;53.340;6.812;2022-10-31T16:42:59;18.45;;;10.27;;
56331;SDS011;42237;53.340;6.812;2022-10-31T16:45:26;19.00;;;11.68;;
56331;SDS011;42237;53.340;6.812;2022-10-31T16:47:54;18.55;;;11.02;;
56331;SDS011;42237;53.340;6.812;2022-10-31T16:50:31;19.88;;;10.70;;
56331;SDS011;42237;53.340;6.812;2022-10-31T16:52:57;20.48;;;12.07;;
56331;SDS011;42237;53.340;6.812;2022-10-31T16:55:23;21.05;;;10.88;;
56331;SDS011;42237;53.340;6.812;2022-10-31T16:57:52;21.13;;;11.77;;
56331;SDS011;42237;53.340;6.812;2022-10-31T17:00:21;20.60;;;13.18;;
56331;SDS011;42237;53.340;6.812;2022-10-31T17:02:49;21.90;;;11.32;;
56331;SDS011;42237;53.340;6.812;2022-10-31T17:05:19;21.58;;;11.63;;
56331;SDS011;42237;53.340;6.812;2022-10-31T17:07:46;21.55;;;12.13;;
56331;SDS011;42237;53.340;6.812;2022-10-31T17:10:15;24.40;;;13.52;;
56331;SDS011;42237;53.340;6.812;2022-10-31T17:12:49;23.83;;;13.30;;
56331;SDS011;42237;53.340;6.812;2022-10-31T17:15:20;24.80;;;13.73;;
56331;SDS011;42237;53.340;6.812;2022-10-31T17:17:48;26.02;;;14.77;;
56331;SDS011;42237;53.340;6.812;2022-10-31T17:20:18;28.85;;;15.45;;
56331;SDS011;42237;53.340;6.812;2022-10-31T17:22:47;30.00;;;15.38;;
56331;SDS011;42237;53.340;6.812;2022-10-31T17:25:14;27.27;;;15.65;;
56331;SDS011;42237;53.340;6.812;2022-10-31T17:27:50;35.22;;;16.98;;